createdAt,value
2023-03-12T00:00:11.468Z,100135.73
2023-03-12T00:05:17.103Z,100136.59
2023-03-12T00:10:22.704Z,100148.31
2023-03-12T00:15:28.548Z,100147.16
2023-03-12T00:20:34.192Z,100163.59
2023-03-12T00:25:39.721Z,100167.80
2023-03-12T00:30:45.247Z,100173.45
2023-03-12T00:35:51.021Z,100182.03
2023-03-12T00:40:57.929Z,100178.88
2023-03-12T00:46:03.719Z,100182.79
2023-03-12T00:51:09.695Z,100183.19
2023-03-12T00:56:15.607Z,100175.23
2023-03-12T01:01:21.105Z,100159.53
2023-03-12T01:06:28.380Z,100171.63
2023-03-12T01:11:34.766Z,100191.84
2023-03-12T01:16:40.338Z,100188.69
2023-03-12T01:21:46.031Z,100193.63
2023-03-12T01:26:51.633Z,100196.10
2023-03-12T01:31:57.164Z,100198.64
2023-03-12T01:37:02.888Z,100202.92
2023-03-12T01:42:09.010Z,100283.14
2023-03-12T01:47:14.489Z,100267.30
2023-03-12T01:52:32.559Z,100276.65
2023-03-12T01:57:50.695Z,100266.55
2023-03-12T02:03:01.045Z,100266.27
2023-03-12T02:08:08.448Z,100244.16
2023-03-12T02:13:14.264Z,100238.03
2023-03-12T02:18:22.249Z,100249.97
2023-03-12T02:23:30.917Z,100246.47
2023-03-12T02:28:40.342Z,100258.85
2023-03-12T02:33:46.797Z,100253.11
2023-03-12T02:38:54.288Z,100270.62
2023-03-12T02:44:20.529Z,100277.45
2023-03-12T02:49:30.831Z,100285.69
2023-03-12T02:54:37.222Z,100289.59
2023-03-12T03:00:00.944Z,100295.05
2023-03-12T03:05:25.746Z,100304.94
2023-03-12T03:10:52.803Z,100317.59
2023-03-12T03:16:16.246Z,100315.33
2023-03-12T03:21:39.963Z,100321.83
2023-03-12T03:27:03.067Z,100329.24
2023-03-12T03:32:26.917Z,100324.05
2023-03-12T03:37:50.100Z,100336.53
2023-03-12T03:43:13.826Z,100339.45
2023-03-12T03:48:37.422Z,100345.71
2023-03-12T03:54:01.824Z,100356.70
2023-03-12T03:59:25.602Z,100354.06
2023-03-12T04:04:49.559Z,100364.08
2023-03-12T04:10:14.658Z,100375.38
2023-03-12T04:15:38.410Z,100381.44
2023-03-12T04:21:02.133Z,100383.21
2023-03-12T04:26:25.654Z,100390.03
2023-03-12T04:31:49.831Z,100397.22
2023-03-12T04:37:16.564Z,100404.30
2023-03-12T04:42:40.285Z,100398.98
2023-03-12T04:48:04.584Z,100404.19
2023-03-12T04:53:28.537Z,100402.08
2023-03-12T04:58:53.203Z,100410.16
2023-03-12T05:04:17.217Z,100415.42
2023-03-12T05:09:40.647Z,100417.23
2023-03-12T05:15:04.735Z,100426.00
2023-03-12T05:20:28.133Z,100422.95
2023-03-12T05:25:51.813Z,100427.25
2023-03-12T05:31:16.169Z,100433.03
2023-03-12T05:36:40.397Z,100438.52
2023-03-12T05:42:03.913Z,100439.38
2023-03-12T05:47:27.857Z,100442.36
2023-03-12T05:52:52.330Z,100443.98
2023-03-12T05:58:16.328Z,100441.59
2023-03-12T06:03:40.472Z,100454.47
2023-03-12T06:09:06.014Z,100459.56
2023-03-12T06:14:29.366Z,100464.50
2023-03-12T06:19:54.080Z,100468.90
2023-03-12T06:25:17.733Z,100480.43
2023-03-12T06:30:41.033Z,100484.98
2023-03-12T06:36:07.115Z,100489.54
2023-03-12T06:41:30.731Z,100489.84
2023-03-12T06:46:54.041Z,100499.18
2023-03-12T06:52:18.703Z,100495.97
2023-03-12T06:57:42.175Z,100503.77
2023-03-12T07:03:06.068Z,100505.27
2023-03-12T07:08:31.347Z,100510.72
2023-03-12T07:13:54.928Z,100511.14
2023-03-12T07:19:19.622Z,100522.56
2023-03-12T07:24:43.156Z,100522.56
2023-03-12T07:30:07.362Z,100527.63
2023-03-12T07:35:31.698Z,100511.66
2023-03-12T07:40:57.153Z,100513.71
2023-03-12T07:46:20.816Z,100523.71
2023-03-12T07:51:44.314Z,100527.17
2023-03-12T07:57:08.006Z,100536.53
2023-03-12T08:02:31.877Z,100533.70
2023-03-12T08:07:56.289Z,100536.06
2023-03-12T08:13:19.512Z,100549.14
2023-03-12T08:18:44.004Z,100542.58
2023-03-12T08:24:07.883Z,100549.64
2023-03-12T08:29:32.906Z,100537.95
2023-03-12T08:34:56.195Z,100540.12
2023-03-12T08:40:19.953Z,100560.88
2023-03-12T08:45:43.474Z,100546.23
2023-03-12T08:51:07.691Z,100559.30
2023-03-12T08:56:31.211Z,100564.61
2023-03-12T09:01:54.618Z,100579.31
2023-03-12T09:07:22.299Z,100571.44
2023-03-12T09:12:45.473Z,100593.63
2023-03-12T09:18:08.646Z,100585.08
2023-03-12T09:23:32.470Z,100589.53
2023-03-12T09:28:58.026Z,100594.53
2023-03-12T09:34:21.162Z,100609.08
2023-03-12T09:39:44.526Z,100610.14
2023-03-12T09:45:10.584Z,100603.56
2023-03-12T09:50:43.829Z,100600.41
2023-03-12T09:56:10.305Z,100592.39
2023-03-12T10:01:54.842Z,100589.89
2023-03-12T10:07:11.736Z,100437.00
2023-03-12T10:12:35.540Z,100585.23
2023-03-12T10:17:46.857Z,100590.88
2023-03-12T10:23:07.817Z,100586.59
2023-03-12T10:28:25.367Z,100587.13
2023-03-12T10:33:34.279Z,100590.36
2023-03-12T10:38:40.149Z,100589.50
2023-03-12T10:43:46.193Z,100591.45
2023-03-12T10:48:51.709Z,100573.80
2023-03-12T10:53:57.332Z,100582.86
2023-03-12T10:59:02.733Z,100588.28
2023-03-12T11:04:17.050Z,100587.36
2023-03-12T11:09:22.609Z,100581.86
2023-03-12T11:14:30.919Z,100579.30
2023-03-12T11:19:37.321Z,100586.29
2023-03-12T11:25:01.114Z,100579.31
2023-03-12T11:30:10.009Z,100576.77
2023-03-12T11:35:20.101Z,100582.30
2023-03-12T11:40:37.674Z,100585.00
2023-03-12T11:45:49.166Z,100566.27
2023-03-12T11:51:09.768Z,100555.79
2023-03-12T11:56:30.556Z,100564.83
2023-03-12T12:01:45.196Z,100549.26
2023-03-12T12:07:08.743Z,100546.70
2023-03-12T12:12:19.988Z,100541.65
2023-03-12T12:17:53.781Z,100541.14
2023-03-12T12:23:14.354Z,100529.42
2023-03-12T12:28:39.466Z,100525.83
2023-03-12T12:34:04.275Z,100505.76
2023-03-12T12:39:21.853Z,100497.63
2023-03-12T12:44:30.314Z,100494.53
2023-03-12T12:49:38.834Z,100484.67
2023-03-12T12:54:59.317Z,100471.42
2023-03-12T13:00:13.981Z,100466.24
2023-03-12T13:05:22.418Z,100463.11
2023-03-12T13:10:52.923Z,100472.95
2023-03-12T13:15:50.599Z,100478.25
2023-03-12T13:21:01.951Z,100471.27
2023-03-12T13:26:28.932Z,100463.52
2023-03-12T13:31:38.262Z,100462.40
2023-03-12T13:36:46.387Z,100454.06
2023-03-12T13:41:53.989Z,100453.89
2023-03-12T13:47:21.919Z,100442.96
2023-03-12T13:52:36.134Z,100438.86
2023-03-12T13:57:45.137Z,100445.33
2023-03-12T14:03:02.787Z,100417.55
2023-03-12T14:08:13.832Z,100416.75
2023-03-12T14:13:27.858Z,100422.55
2023-03-12T14:18:36.388Z,100442.09
2023-03-12T14:23:57.068Z,100436.13
2023-03-12T14:29:22.444Z,100445.68
2023-03-12T14:34:30.817Z,100433.17
2023-03-12T14:39:57.455Z,100427.60
2023-03-12T14:45:21.482Z,100424.88
2023-03-12T14:50:34.133Z,100407.92
2023-03-12T14:55:39.691Z,100409.14
2023-03-12T15:00:48.234Z,100385.67
2023-03-12T15:05:54.353Z,100364.02
2023-03-12T15:11:00.593Z,100343.25
2023-03-12T15:16:08.029Z,100337.25
2023-03-12T15:21:13.947Z,100339.41
2023-03-12T15:26:25.148Z,100330.67
2023-03-12T15:31:39.414Z,100330.11
2023-03-12T15:36:51.833Z,100318.78
2023-03-12T15:41:59.737Z,100297.84
2023-03-12T15:47:14.389Z,100301.51
2023-03-12T15:52:22.906Z,100307.30
2023-03-12T15:57:28.977Z,100284.97
2023-03-12T16:02:40.348Z,100294.77
2023-03-12T16:07:46.218Z,100302.03
2023-03-12T16:12:53.991Z,100289.61
2023-03-12T16:18:01.387Z,100285.78
2023-03-12T16:23:07.420Z,100279.30
2023-03-12T16:28:16.188Z,100273.99
2023-03-12T16:33:24.579Z,100257.70
2023-03-12T16:38:29.979Z,100258.33
2023-03-12T16:43:37.998Z,100271.78
2023-03-12T16:48:43.630Z,100287.09
2023-03-12T16:54:02.020Z,100291.42
2023-03-12T16:58:57.453Z,100289.38
2023-03-12T17:04:04.566Z,100290.83
2023-03-12T17:09:10.236Z,100286.59
2023-03-12T17:14:22.304Z,100284.87
2023-03-12T17:19:28.316Z,100268.72
2023-03-12T17:24:34.228Z,100261.67
2023-03-12T17:29:39.684Z,100259.51
2023-03-12T17:34:45.155Z,100260.91
2023-03-12T17:39:50.876Z,100259.31
2023-03-12T17:44:56.253Z,100255.23
2023-03-12T17:50:01.718Z,100245.97
2023-03-12T17:55:11.378Z,100249.95
2023-03-12T18:00:18.174Z,100244.50
2023-03-12T18:05:23.790Z,100263.23
2023-03-12T18:10:29.266Z,100254.53
2023-03-12T18:15:34.869Z,100233.56
2023-03-12T18:20:40.533Z,100224.08
2023-03-12T18:25:46.663Z,100199.81
2023-03-12T18:30:52.536Z,100233.90
2023-03-12T18:35:58.580Z,100220.57
2023-03-12T18:41:06.152Z,100208.36
2023-03-12T18:46:13.224Z,100195.98
2023-03-12T18:51:18.822Z,100206.73
2023-03-12T18:56:24.345Z,100200.03
2023-03-12T19:01:29.975Z,100197.37
2023-03-12T19:06:49.807Z,100201.81
2023-03-12T19:11:42.536Z,100206.37
2023-03-12T19:16:48.378Z,100206.92
2023-03-12T19:21:53.862Z,100212.25
2023-03-12T19:26:59.617Z,100207.48
2023-03-12T19:32:05.414Z,100204.07
2023-03-12T19:37:11.172Z,100204.57
2023-03-12T19:42:16.559Z,100200.27
2023-03-12T19:47:22.561Z,100187.67
2023-03-12T19:52:28.150Z,100186.48
2023-03-12T19:57:34.684Z,100184.52
2023-03-12T20:02:40.975Z,100186.95
2023-03-12T20:07:48.308Z,100175.08
2023-03-12T20:12:53.706Z,100162.69
2023-03-12T20:17:59.626Z,100153.14
2023-03-12T20:23:05.172Z,100147.62
2023-03-12T20:28:11.885Z,100144.23
2023-03-12T20:33:17.622Z,100132.71
2023-03-12T20:38:23.064Z,100118.84
2023-03-12T20:43:28.674Z,100108.70
2023-03-12T20:48:35.211Z,100106.64
2023-03-12T20:53:40.702Z,100104.73
2023-03-12T20:58:46.179Z,100103.09
2023-03-12T21:03:52.029Z,100096.94
2023-03-12T21:08:58.216Z,100081.08
2023-03-12T21:14:03.691Z,100081.08
2023-03-12T21:19:09.174Z,100093.45
2023-03-12T21:24:14.960Z,100082.98
2023-03-12T21:29:20.401Z,100082.98
2023-03-12T21:34:25.989Z,100077.42
2023-03-12T21:39:31.489Z,100064.45
2023-03-12T21:44:38.239Z,100064.52
2023-03-12T21:49:44.901Z,100050.69
2023-03-12T21:54:50.450Z,100046.91
2023-03-12T21:59:59.646Z,100042.55
2023-03-12T22:05:05.915Z,100035.52
2023-03-12T22:10:12.503Z,100037.11
2023-03-12T22:15:17.945Z,100045.45
2023-03-12T22:20:23.580Z,100027.52
2023-03-12T22:25:29.101Z,100017.66
2023-03-12T22:30:36.919Z,100012.89
2023-03-12T22:35:49.855Z,100005.08
2023-03-12T22:40:55.969Z,99984.30
2023-03-12T22:46:01.588Z,99991.18
2023-03-12T22:51:07.705Z,99992.27
2023-03-12T22:56:14.712Z,99987.55
2023-03-12T23:01:23.054Z,99961.13
2023-03-12T23:06:30.220Z,99950.95
2023-03-12T23:11:36.017Z,99950.95
2023-03-12T23:16:41.598Z,99948.03
2023-03-12T23:21:47.125Z,99946.11
2023-03-12T23:26:54.303Z,99947.17
2023-03-12T23:32:01.675Z,99953.45
2023-03-12T23:37:07.307Z,99943.92
2023-03-12T23:42:12.821Z,99934.67
2023-03-12T23:47:18.273Z,99940.69
2023-03-12T23:52:25.235Z,99925.21
2023-03-12T23:57:31.212Z,99926.98
